createdAt,value
2018-05-16T00:00:38.737Z,100197.60
2018-05-16T00:03:07.065Z,100195.93
2018-05-16T00:05:35.379Z,100198.81
2018-05-16T00:08:03.694Z,100196.87
2018-05-16T00:10:32.031Z,100197.81
2018-05-16T00:13:00.324Z,100197.88
2018-05-16T00:15:28.977Z,100193.39
2018-05-16T00:17:57.283Z,100198.95
2018-05-16T00:20:25.582Z,100197.56
2018-05-16T00:22:53.916Z,100203.84
2018-05-16T00:25:22.187Z,100202.64
2018-05-16T00:27:50.523Z,100203.21
2018-05-16T00:30:18.805Z,100200.53
2018-05-16T00:32:47.078Z,100200.41
2018-05-16T00:35:16.132Z,100195.68
2018-05-16T00:37:44.436Z,100192.55
2018-05-16T00:40:12.744Z,100190.23
2018-05-16T00:42:41.042Z,100189.41
2018-05-16T00:45:09.355Z,100186.09
2018-05-16T00:47:37.673Z,100189.02
2018-05-16T00:50:06.738Z,100182.34
2018-05-16T00:52:35.076Z,100179.42
2018-05-16T00:55:03.430Z,100185.70
2018-05-16T00:57:32.462Z,100181.52
2018-05-16T01:00:00.777Z,100177.27
2018-05-16T01:02:29.089Z,100182.68
2018-05-16T01:04:57.398Z,100177.37
2018-05-16T01:07:25.748Z,100178.88
2018-05-16T01:09:54.046Z,100183.83
2018-05-16T01:12:22.544Z,100184.62
2018-05-16T01:14:50.813Z,100186.50
2018-05-16T01:17:19.099Z,100184.84
2018-05-16T01:19:47.398Z,100189.75
2018-05-16T01:22:15.726Z,100184.91
2018-05-16T01:24:44.041Z,100180.89
2018-05-16T01:27:12.344Z,100188.98
2018-05-16T01:29:41.410Z,100186.53
2018-05-16T01:32:09.714Z,100185.84
2018-05-16T01:34:38.009Z,100186.74
2018-05-16T01:37:07.142Z,100188.57
2018-05-16T01:39:35.461Z,100189.73
2018-05-16T01:42:03.768Z,100192.95
2018-05-16T01:44:32.083Z,100191.03
2018-05-16T01:47:00.400Z,100193.30
2018-05-16T01:49:28.714Z,100198.12
2018-05-16T01:51:56.951Z,100195.73
2018-05-16T01:54:25.293Z,100195.91
2018-05-16T01:56:53.585Z,100191.39
2018-05-16T01:59:21.922Z,100194.45
2018-05-16T02:01:50.209Z,100191.56
2018-05-16T02:04:18.508Z,100195.38
2018-05-16T02:06:46.823Z,100202.05
2018-05-16T02:09:15.941Z,100189.02
2018-05-16T02:11:44.313Z,100195.58
2018-05-16T02:14:13.334Z,100191.03
2018-05-16T02:16:41.715Z,100196.19
2018-05-16T02:19:10.029Z,100186.42
2018-05-16T02:21:38.357Z,100187.48
2018-05-16T02:24:06.657Z,100195.86
2018-05-16T02:26:34.985Z,100186.50
2018-05-16T02:29:04.025Z,100189.75
2018-05-16T02:31:32.347Z,100185.33
2018-05-16T02:34:00.629Z,100195.50
2018-05-16T02:36:29.701Z,100194.48
2018-05-16T02:38:57.992Z,100198.33
2018-05-16T02:41:26.334Z,100197.27
2018-05-16T02:43:54.646Z,100201.45
2018-05-16T02:46:22.937Z,100204.80
2018-05-16T02:48:52.003Z,100198.23
2018-05-16T02:51:20.307Z,100206.69
2018-05-16T02:53:49.405Z,100208.03
2018-05-16T02:56:18.449Z,100209.45
2018-05-16T02:58:46.743Z,100209.30
2018-05-16T03:01:15.065Z,100207.68
2018-05-16T03:03:44.192Z,100211.16
2018-05-16T03:06:12.508Z,100206.87
2018-05-16T03:08:40.829Z,100210.91
2018-05-16T03:11:09.380Z,100209.73
2018-05-16T03:13:37.680Z,100209.16
2018-05-16T03:16:06.729Z,100204.10
2018-05-16T03:18:35.036Z,100203.73
2018-05-16T03:21:03.333Z,100209.89
2018-05-16T03:23:32.397Z,100198.84
2018-05-16T03:26:00.692Z,100205.92
2018-05-16T03:28:29.800Z,100211.73
2018-05-16T03:30:58.896Z,100211.05
2018-05-16T03:33:27.954Z,100205.86
2018-05-16T03:35:56.292Z,100212.89
2018-05-16T03:38:24.592Z,100206.91
2018-05-16T03:40:52.883Z,100214.96
2018-05-16T03:43:21.214Z,100219.09
2018-05-16T03:45:49.547Z,100217.84
2018-05-16T03:48:17.851Z,100225.62
2018-05-16T03:50:46.915Z,100226.38
2018-05-16T03:53:15.225Z,100216.95
2018-05-16T03:55:44.273Z,100215.08
2018-05-16T03:58:30.365Z,100214.84
2018-05-16T04:01:16.309Z,100219.95
2018-05-16T04:04:02.846Z,100215.05
2018-05-16T04:06:31.201Z,100223.16
2018-05-16T04:09:00.346Z,100212.89
2018-05-16T04:11:28.695Z,100215.66
2018-05-16T04:13:57.010Z,100223.92
2018-05-16T04:16:25.308Z,100221.44
2018-05-16T04:18:53.593Z,100225.20
2018-05-16T04:21:22.644Z,100228.97
2018-05-16T04:23:50.942Z,100228.33
2018-05-16T04:26:19.254Z,100223.56
2018-05-16T04:28:48.425Z,100228.65
2018-05-16T04:31:16.697Z,100226.78
2018-05-16T04:33:45.006Z,100229.20
2018-05-16T04:36:14.096Z,100231.98
2018-05-16T04:38:43.184Z,100225.55
2018-05-16T04:41:11.491Z,100225.38
2018-05-16T04:43:39.812Z,100227.73
2018-05-16T04:46:08.118Z,100229.24
2018-05-16T04:48:36.432Z,100222.92
2018-05-16T04:51:04.763Z,100231.78
2018-05-16T04:53:33.063Z,100235.55
2018-05-16T04:56:02.108Z,100232.51
2018-05-16T04:58:30.416Z,100237.09
2018-05-16T05:00:58.715Z,100245.81
2018-05-16T05:03:27.774Z,100255.39
2018-05-16T05:05:56.067Z,100260.53
2018-05-16T05:08:25.120Z,100261.06
2018-05-16T05:10:53.416Z,100264.78
2018-05-16T05:13:21.729Z,100270.00
2018-05-16T05:15:50.832Z,100274.39
2018-05-16T05:18:20.010Z,100272.11
2018-05-16T05:20:48.206Z,100269.81
2018-05-16T05:23:17.266Z,100273.09
2018-05-16T05:25:45.589Z,100274.78
2018-05-16T05:28:14.626Z,100272.73
2018-05-16T05:30:42.932Z,100270.52
2018-05-16T05:33:11.272Z,100271.89
2018-05-16T05:35:39.549Z,100267.03
2018-05-16T05:38:07.852Z,100262.03
2018-05-16T05:40:36.146Z,100272.93
2018-05-16T05:43:04.467Z,100270.77
2018-05-16T05:45:32.780Z,100270.94
2018-05-16T05:48:01.133Z,100273.75
2018-05-16T05:50:29.425Z,100275.75
2018-05-16T05:52:57.730Z,100273.97
2018-05-16T05:55:26.068Z,100268.36
2018-05-16T05:57:54.359Z,100270.84
2018-05-16T06:00:22.683Z,100268.13
2018-05-16T06:02:51.740Z,100267.73
2018-05-16T06:05:20.081Z,100266.90
2018-05-16T06:07:48.542Z,100264.59
2018-05-16T06:10:17.599Z,100268.19
2018-05-16T06:12:46.010Z,100269.26
2018-05-16T06:15:14.301Z,100280.69
2018-05-16T06:17:42.597Z,100267.25
2018-05-16T06:20:10.913Z,100271.11
2018-05-16T06:22:39.461Z,100271.98
2018-05-16T06:25:07.745Z,100270.78
2018-05-16T06:27:36.043Z,100269.39
2018-05-16T06:30:04.487Z,100260.56
2018-05-16T06:32:32.792Z,100266.78
2018-05-16T06:35:01.117Z,100269.70
2018-05-16T06:37:30.171Z,100275.52
2018-05-16T06:39:59.211Z,100267.16
2018-05-16T06:42:28.321Z,100274.91
2018-05-16T06:44:56.629Z,100287.72
2018-05-16T06:47:24.928Z,100294.56
2018-05-16T06:49:53.214Z,100296.34
2018-05-16T06:52:21.525Z,100293.81
2018-05-16T06:54:50.582Z,100299.67
2018-05-16T06:57:18.926Z,100298.70
2018-05-16T06:59:47.250Z,100298.27
2018-05-16T07:02:15.553Z,100297.39
2018-05-16T07:04:43.897Z,100298.01
2018-05-16T07:07:12.379Z,100300.48
2018-05-16T07:09:40.716Z,100307.70
2018-05-16T07:12:09.031Z,100308.42
2018-05-16T07:14:38.082Z,100307.80
2018-05-16T07:17:06.387Z,100305.37
2018-05-16T07:19:34.679Z,100300.38
2018-05-16T07:22:02.991Z,100296.98
2018-05-16T07:24:32.061Z,100294.00
2018-05-16T07:27:00.401Z,100299.69
2018-05-16T07:29:28.721Z,100319.70
2018-05-16T07:31:57.025Z,100319.88
2018-05-16T07:34:25.375Z,100314.47
2018-05-16T07:36:53.681Z,100309.14
2018-05-16T07:39:21.961Z,100290.19
2018-05-16T07:41:50.343Z,100286.83
2018-05-16T07:44:18.645Z,100294.55
2018-05-16T07:46:46.957Z,100286.58
2018-05-16T07:49:15.346Z,100295.02
2018-05-16T07:51:43.629Z,100304.54
2018-05-16T07:54:12.688Z,100316.48
2018-05-16T07:56:40.984Z,100323.19
2018-05-16T07:59:13.560Z,100330.39
2018-05-16T08:01:41.864Z,100340.12
2018-05-16T08:04:10.912Z,100352.93
2018-05-16T08:06:39.215Z,100351.59
2018-05-16T08:09:07.538Z,100351.64
2018-05-16T08:11:35.825Z,100351.76
2018-05-16T08:14:04.146Z,100345.61
2018-05-16T08:16:32.440Z,100341.95
2018-05-16T08:19:01.509Z,100346.86
2018-05-16T08:21:29.812Z,100341.70
2018-05-16T08:23:58.896Z,100340.19
2018-05-16T08:26:27.237Z,100350.85
2018-05-16T08:28:55.558Z,100343.59
2018-05-16T08:31:23.886Z,100346.14
2018-05-16T08:33:52.210Z,100350.33
2018-05-16T08:36:20.553Z,100352.05
2018-05-16T08:38:48.855Z,100343.02
2018-05-16T08:41:17.135Z,100346.58
2018-05-16T08:43:45.507Z,100348.80
2018-05-16T08:46:15.402Z,100347.27
2018-05-16T08:48:43.705Z,100343.10
2018-05-16T08:51:12.016Z,100348.32
2018-05-16T08:53:40.359Z,100348.34
2018-05-16T08:56:08.697Z,100347.97
2018-05-16T08:58:37.010Z,100342.07
2018-05-16T09:01:05.373Z,100340.14
2018-05-16T09:03:33.622Z,100339.05
2018-05-16T09:06:01.927Z,100345.12
2018-05-16T09:11:04.750Z,100334.89
2018-05-16T09:13:33.083Z,100335.07
2018-05-16T09:16:01.389Z,100345.30
2018-05-16T09:18:29.706Z,100348.39
2018-05-16T09:20:58.785Z,100345.77
2018-05-16T09:23:27.066Z,100352.78
2018-05-16T09:25:55.373Z,100351.59
2018-05-16T09:28:24.420Z,100351.66
2018-05-16T09:30:52.762Z,100355.16
2018-05-16T09:33:21.217Z,100361.45
2018-05-16T09:35:50.249Z,100354.98
2018-05-16T09:38:18.604Z,100353.15
2018-05-16T09:40:47.009Z,100348.00
2018-05-16T09:43:15.317Z,100342.56
2018-05-16T09:45:43.674Z,100334.23
2018-05-16T09:48:12.676Z,100332.09
2018-05-16T09:50:41.034Z,100324.20
2018-05-16T09:53:09.349Z,100323.67
2018-05-16T09:55:37.670Z,100323.20
2018-05-16T09:58:07.104Z,100337.64
2018-05-16T10:00:35.396Z,100335.41
2018-05-16T10:03:03.717Z,100337.98
2018-05-16T10:05:32.765Z,100351.68
2018-05-16T10:08:01.052Z,100352.76
2018-05-16T10:10:29.436Z,100359.55
2018-05-16T10:12:57.808Z,100356.02
2018-05-16T10:15:26.078Z,100358.50
2018-05-16T10:17:54.471Z,100352.23
2018-05-16T10:20:22.772Z,100360.55
2018-05-16T10:22:51.949Z,100355.14
2018-05-16T10:25:20.324Z,100360.95
2018-05-16T10:27:49.415Z,100369.30
2018-05-16T10:30:17.712Z,100374.62
2018-05-16T10:32:46.044Z,100372.56
2018-05-16T10:35:14.348Z,100377.86
2018-05-16T10:37:42.675Z,100377.62
2018-05-16T10:40:10.989Z,100384.26
2018-05-16T10:42:39.309Z,100397.05
2018-05-16T10:45:07.804Z,100397.50
2018-05-16T10:47:36.166Z,100390.28
2018-05-16T10:50:05.242Z,100380.64
2018-05-16T10:52:33.569Z,100375.87
2018-05-16T10:55:01.890Z,100371.89
2018-05-16T10:57:30.364Z,100372.30
2018-05-16T10:59:58.652Z,100363.00
2018-05-16T11:02:26.955Z,100355.20
2018-05-16T11:04:55.250Z,100351.39
2018-05-16T11:07:24.402Z,100346.63
2018-05-16T11:09:52.719Z,100353.94
2018-05-16T11:12:21.796Z,100346.79
2018-05-16T11:14:50.151Z,100345.75
2018-05-16T11:17:18.464Z,100333.96
2018-05-16T11:19:47.576Z,100342.09
2018-05-16T11:22:15.916Z,100341.26
2018-05-16T11:24:44.204Z,100347.27
2018-05-16T11:27:12.653Z,100356.00
2018-05-16T11:29:40.965Z,100359.06
2018-05-16T11:32:09.301Z,100364.36
2018-05-16T11:34:37.607Z,100366.99
2018-05-16T11:37:05.934Z,100374.30
2018-05-16T11:39:34.472Z,100384.70
2018-05-16T11:42:02.897Z,100401.33
2018-05-16T11:44:31.217Z,100397.55
2018-05-16T11:46:59.525Z,100393.02
2018-05-16T11:49:27.853Z,100383.14
2018-05-16T11:51:56.151Z,100384.00
2018-05-16T11:54:24.548Z,100388.56
2018-05-16T11:56:52.835Z,100382.22
2018-05-16T11:59:21.255Z,100382.02
2018-05-16T12:01:49.566Z,100375.14
2018-05-16T12:04:18.012Z,100378.55
2018-05-16T12:06:46.324Z,100382.73
2018-05-16T12:09:14.730Z,100380.34
2018-05-16T12:11:43.273Z,100380.36
2018-05-16T12:14:11.553Z,100385.17
2018-05-16T12:16:39.892Z,100387.83
2018-05-16T12:19:08.955Z,100389.86
2018-05-16T12:21:37.279Z,100394.14
2018-05-16T12:24:05.605Z,100392.69
2018-05-16T12:26:34.162Z,100390.40
2018-05-16T12:29:02.521Z,100380.27
2018-05-16T12:31:30.764Z,100365.01
2018-05-16T12:33:59.880Z,100355.72
2018-05-16T12:36:28.311Z,100348.68
2018-05-16T12:38:56.551Z,100338.17
2018-05-16T12:41:24.842Z,100334.00
2018-05-16T12:43:53.159Z,100328.55
2018-05-16T12:46:21.441Z,100328.10
2018-05-16T12:48:49.755Z,100325.67
2018-05-16T12:51:18.087Z,100319.45
2018-05-16T12:53:46.725Z,100324.75
2018-05-16T12:56:15.121Z,100320.03
2018-05-16T12:58:43.503Z,100315.29
2018-05-16T13:01:12.045Z,100311.75
2018-05-16T13:03:40.641Z,100319.89
2018-05-16T13:06:09.185Z,100312.12
2018-05-16T13:08:37.557Z,100322.40
2018-05-16T13:11:06.622Z,100316.70
2018-05-16T13:13:34.958Z,100314.61
2018-05-16T13:16:04.022Z,100323.24
2018-05-16T13:18:32.350Z,100322.14
2018-05-16T13:21:00.680Z,100322.59
2018-05-16T13:23:29.790Z,100317.22
2018-05-16T13:25:58.113Z,100313.14
2018-05-16T13:28:27.350Z,100323.50
2018-05-16T13:30:55.753Z,100319.25
2018-05-16T13:33:24.408Z,100319.31
2018-05-16T13:35:52.860Z,100327.27
2018-05-16T13:38:21.167Z,100322.30
2018-05-16T13:40:49.498Z,100324.31
2018-05-16T13:43:18.582Z,100323.05
2018-05-16T13:45:47.661Z,100325.71
2018-05-16T13:48:15.953Z,100316.84
2018-05-16T13:50:45.085Z,100315.25
2018-05-16T13:53:13.522Z,100309.17
2018-05-16T13:55:42.636Z,100313.09
2018-05-16T13:58:11.732Z,100312.30
2018-05-16T14:00:40.899Z,100316.44
2018-05-16T14:03:09.342Z,100314.13
2018-05-16T14:05:37.620Z,100320.38
2018-05-16T14:08:05.969Z,100313.66
2018-05-16T14:10:34.288Z,100309.88
2018-05-16T14:13:02.609Z,100300.97
2018-05-16T14:15:31.705Z,100293.81
2018-05-16T14:18:00.785Z,100276.48
2018-05-16T14:20:29.283Z,100266.80
2018-05-16T14:22:58.416Z,100263.94
2018-05-16T14:25:26.871Z,100252.38
2018-05-16T14:27:55.984Z,100257.42
2018-05-16T14:30:24.304Z,100251.28
2018-05-16T14:32:52.638Z,100254.50
2018-05-16T14:35:21.067Z,100256.91
2018-05-16T14:37:49.364Z,100265.84
2018-05-16T14:40:17.682Z,100271.01
2018-05-16T14:42:46.081Z,100274.11
2018-05-16T14:45:14.439Z,100260.47
2018-05-16T14:47:42.780Z,100263.19
2018-05-16T14:50:11.866Z,100254.30
2018-05-16T14:52:40.160Z,100254.28
2018-05-16T14:55:09.243Z,100261.91
2018-05-16T14:57:37.572Z,100287.73
2018-05-16T15:00:05.910Z,100275.88
2018-05-16T15:02:34.992Z,100274.53
2018-05-16T15:05:03.389Z,100270.14
2018-05-16T15:07:33.035Z,100268.41
2018-05-16T15:10:01.296Z,100255.87
2018-05-16T15:12:29.739Z,100248.74
2018-05-16T15:14:58.093Z,100234.67
2018-05-16T15:17:26.390Z,100237.16
2018-05-16T15:19:54.732Z,100239.69
2018-05-16T15:22:23.048Z,100237.95
2018-05-16T15:24:51.362Z,100233.58
2018-05-16T15:27:19.711Z,100234.54
2018-05-16T15:29:47.998Z,100230.86
2018-05-16T15:32:17.122Z,100236.34
2018-05-16T15:34:45.449Z,100227.63
2018-05-16T15:37:13.764Z,100231.79
2018-05-16T15:39:42.804Z,100225.89
2018-05-16T15:42:11.233Z,100233.90
2018-05-16T15:44:40.296Z,100244.72
2018-05-16T15:47:08.683Z,100253.80
2018-05-16T15:49:37.004Z,100249.81
2018-05-16T15:52:05.313Z,100259.81
2018-05-16T15:54:34.096Z,100270.23
2018-05-16T15:57:02.376Z,100278.61
2018-05-16T15:59:33.662Z,100297.25
2018-05-16T16:02:02.775Z,100317.56
2018-05-16T16:04:31.365Z,100334.28
2018-05-16T16:06:59.722Z,100346.66
2018-05-16T16:09:28.049Z,100333.76
2018-05-16T16:11:56.360Z,100312.80
2018-05-16T16:14:24.716Z,100318.40
2018-05-16T16:16:53.030Z,100333.55
2018-05-16T16:19:21.362Z,100333.71
2018-05-16T16:21:49.658Z,100318.17
2018-05-16T16:24:18.030Z,100296.67
2018-05-16T16:26:46.386Z,100286.70
2018-05-16T16:29:14.724Z,100282.77
2018-05-16T16:31:43.239Z,100305.23
2018-05-16T16:34:11.554Z,100305.37
2018-05-16T16:36:39.881Z,100303.35
2018-05-16T16:39:08.979Z,100292.61
2018-05-16T16:41:38.461Z,100290.05
2018-05-16T16:44:06.776Z,100281.38
2018-05-16T16:46:35.122Z,100277.03
2018-05-16T16:49:03.456Z,100279.12
2018-05-16T16:51:31.747Z,100285.28
2018-05-16T16:54:00.060Z,100307.65
2018-05-16T16:56:28.376Z,100330.03
2018-05-16T16:58:56.689Z,100340.27
2018-05-16T17:01:24.999Z,100342.80
2018-05-16T17:03:54.062Z,100352.13
2018-05-16T17:06:22.451Z,100348.41
2018-05-16T17:08:50.751Z,100332.45
2018-05-16T17:11:19.977Z,100297.69
2018-05-16T17:13:48.309Z,100292.39
2018-05-16T17:16:16.672Z,100283.19
2018-05-16T17:18:45.007Z,100266.09
2018-05-16T17:21:13.309Z,100253.22
2018-05-16T17:23:41.841Z,100264.17
2018-05-16T17:26:10.985Z,100264.80
2018-05-16T17:28:39.291Z,100278.95
2018-05-16T17:31:07.628Z,100296.60
2018-05-16T17:33:35.912Z,100306.88
2018-05-16T17:36:04.321Z,100335.08
2018-05-16T17:38:32.599Z,100327.34
2018-05-16T17:41:01.729Z,100313.49
2018-05-16T17:43:30.851Z,100310.97
2018-05-16T17:45:59.169Z,100310.33
2018-05-16T17:48:27.500Z,100348.73
2018-05-16T17:50:55.830Z,100364.04
2018-05-16T17:53:24.168Z,100354.53
2018-05-16T17:55:52.490Z,100362.70
2018-05-16T17:58:20.815Z,100377.22
2018-05-16T18:00:49.152Z,100371.83
2018-05-16T18:03:17.461Z,100386.17
2018-05-16T18:05:46.666Z,100401.42
2018-05-16T18:08:14.976Z,100401.91
2018-05-16T18:10:43.338Z,100414.44
2018-05-16T18:16:56.682Z,100408.14
2018-05-16T18:19:24.981Z,100412.23
2018-05-16T18:21:53.329Z,100421.09
2018-05-16T18:24:21.647Z,100409.47
2018-05-16T18:26:49.956Z,100385.92
2018-05-16T18:29:18.405Z,100403.66
2018-05-16T18:31:46.723Z,100421.03
2018-05-16T18:34:15.064Z,100425.84
2018-05-16T18:36:43.467Z,100430.58
2018-05-16T18:39:11.844Z,100436.47
2018-05-16T18:41:40.138Z,100440.74
2018-05-16T18:44:09.289Z,100438.97
2018-05-16T18:46:37.588Z,100438.25
2018-05-16T18:49:05.971Z,100377.88
2018-05-16T18:51:34.389Z,100323.64
2018-05-16T18:54:03.508Z,100344.63
2018-05-16T18:56:31.897Z,100334.20
2018-05-16T18:59:04.673Z,100347.91
2018-05-16T19:01:33.095Z,100385.19
2018-05-16T19:04:02.163Z,100395.98
2018-05-16T19:06:30.499Z,100386.76
2018-05-16T19:08:58.829Z,100374.50
2018-05-16T19:11:27.177Z,100383.26
2018-05-16T19:13:55.517Z,100391.07
2018-05-16T19:16:23.859Z,100392.53
2018-05-16T19:18:52.238Z,100391.91
2018-05-16T19:21:20.537Z,100378.70
2018-05-16T19:23:48.895Z,100365.32
2018-05-16T19:26:17.230Z,100377.53
2018-05-16T19:28:45.605Z,100383.47
2018-05-16T19:31:13.925Z,100388.99
2018-05-16T19:33:42.263Z,100398.59
2018-05-16T19:36:11.363Z,100409.95
2018-05-16T19:38:40.542Z,100407.80
2018-05-16T19:41:09.671Z,100408.34
2018-05-16T19:43:38.017Z,100412.35
2018-05-16T19:46:07.333Z,100423.27
2018-05-16T19:48:35.608Z,100436.19
2018-05-16T19:51:05.090Z,100442.16
2018-05-16T19:53:33.412Z,100448.91
2018-05-16T19:56:01.792Z,100453.38
2018-05-16T19:58:30.180Z,100456.34
2018-05-16T20:00:58.515Z,100468.85
2018-05-16T20:03:26.896Z,100468.72
2018-05-16T20:05:55.281Z,100472.47
2018-05-16T20:08:23.621Z,100478.20
2018-05-16T20:10:51.953Z,100481.55
2018-05-16T20:13:20.282Z,100477.81
2018-05-16T20:15:48.635Z,100485.58
2018-05-16T20:18:16.969Z,100481.71
2018-05-16T20:20:46.061Z,100495.30
2018-05-16T20:23:14.429Z,100483.66
2018-05-16T20:25:42.789Z,100496.11
2018-05-16T20:28:11.100Z,100498.20
2018-05-16T20:30:40.345Z,100497.49
2018-05-16T20:33:08.684Z,100486.55
2018-05-16T20:35:37.773Z,100490.84
2018-05-16T20:38:06.889Z,100487.72
2018-05-16T20:40:35.317Z,100489.34
2018-05-16T20:43:03.640Z,100492.16
2018-05-16T20:45:32.007Z,100487.38
2018-05-16T20:48:01.167Z,100498.20
2018-05-16T20:50:29.494Z,100494.72
2018-05-16T20:52:58.562Z,100496.79
2018-05-16T20:55:26.993Z,100493.63
2018-05-16T20:57:55.337Z,100505.64
2018-05-16T21:00:24.513Z,100500.88
2018-05-16T21:02:52.909Z,100512.95
2018-05-16T21:05:22.124Z,100509.13
2018-05-16T21:07:50.527Z,100510.83
2018-05-16T21:10:18.865Z,100510.20
2018-05-16T21:12:48.063Z,100509.55
2018-05-16T21:15:17.127Z,100512.11
2018-05-16T21:17:45.526Z,100507.95
2018-05-16T21:20:14.593Z,100520.20
2018-05-16T21:22:42.947Z,100519.98
2018-05-16T21:25:11.242Z,100526.19
2018-05-16T21:27:39.556Z,100524.11
2018-05-16T21:30:07.905Z,100522.02
2018-05-16T21:32:36.311Z,100525.91
2018-05-16T21:35:04.666Z,100526.72
2018-05-16T21:37:32.978Z,100519.66
2018-05-16T21:40:01.332Z,100527.83
2018-05-16T21:42:29.627Z,100523.70
2018-05-16T21:44:57.947Z,100523.66
2018-05-16T21:47:26.220Z,100529.47
2018-05-16T21:49:54.550Z,100528.20
2018-05-16T21:52:22.876Z,100531.28
2018-05-16T21:54:51.253Z,100538.06
2018-05-16T21:57:19.607Z,100537.13
2018-05-16T21:59:48.694Z,100541.30
2018-05-16T22:02:16.973Z,100545.26
2018-05-16T22:04:46.080Z,100550.34
2018-05-16T22:07:15.157Z,100549.95
2018-05-16T22:09:43.481Z,100546.75
2018-05-16T22:12:11.779Z,100549.89
2018-05-16T22:14:40.117Z,100547.78
2018-05-16T22:17:09.153Z,100553.12
2018-05-16T22:19:37.507Z,100546.27
2018-05-16T22:22:05.863Z,100554.60
2018-05-16T22:24:35.027Z,100562.20
2018-05-16T22:27:03.649Z,100556.34
2018-05-16T22:29:32.717Z,100564.38
2018-05-16T22:32:06.528Z,100569.45
2018-05-16T22:34:40.404Z,100566.45
2018-05-16T22:37:14.003Z,100570.05
2018-05-16T22:39:47.840Z,100576.81
2018-05-16T22:42:21.924Z,100574.70
2018-05-16T22:44:55.653Z,100573.66
2018-05-16T22:47:23.960Z,100564.74
2018-05-16T22:49:53.029Z,100573.25
2018-05-16T22:52:21.374Z,100559.84
2018-05-16T22:54:49.631Z,100563.95
2018-05-16T22:57:17.997Z,100566.61
2018-05-16T22:59:47.075Z,100563.14
2018-05-16T23:02:15.410Z,100572.75
2018-05-16T23:04:43.692Z,100571.45
2018-05-16T23:07:11.987Z,100567.05
2018-05-16T23:09:40.322Z,100564.40
2018-05-16T23:12:09.045Z,100559.88
2018-05-16T23:14:37.359Z,100568.19
2018-05-16T23:17:06.655Z,100570.53
2018-05-16T23:19:35.149Z,100575.86
2018-05-16T23:22:04.203Z,100569.62
2018-05-16T23:24:32.632Z,100578.73
2018-05-16T23:27:01.721Z,100582.39
2018-05-16T23:29:30.784Z,100584.56
2018-05-16T23:31:59.089Z,100582.11
2018-05-16T23:34:28.142Z,100590.11
2018-05-16T23:36:56.418Z,100592.56
2018-05-16T23:39:24.762Z,100599.08
2018-05-16T23:41:53.116Z,100595.80
2018-05-16T23:44:22.206Z,100603.89
2018-05-16T23:46:51.281Z,100597.65
2018-05-16T23:49:19.569Z,100599.98
2018-05-16T23:51:47.882Z,100607.73
2018-05-16T23:54:16.191Z,100608.23
2018-05-16T23:56:44.524Z,100609.34
2018-05-16T23:59:13.554Z,100612.23
